createdAt,value
2023-03-10T00:00:46.181Z,70.55
2023-03-10T00:03:12.897Z,64.53
2023-03-10T00:05:39.907Z,72.50
2023-03-10T00:08:07.361Z,68.32
2023-03-10T00:10:34.141Z,74.32
2023-03-10T00:13:00.982Z,72.63
2023-03-10T00:15:27.859Z,67.63
2023-03-10T00:17:54.661Z,61.58
2023-03-10T00:20:23.242Z,64.72
2023-03-10T00:22:50.035Z,71.90
2023-03-10T00:25:16.942Z,71.32
2023-03-10T00:27:43.829Z,63.22
2023-03-10T00:30:11.108Z,70.82
2023-03-10T00:32:37.889Z,70.18
2023-03-10T00:35:06.079Z,63.90
2023-03-10T00:37:36.203Z,63.10
2023-03-10T00:40:03.314Z,61.08
2023-03-10T00:42:30.208Z,66.80
2023-03-10T00:44:57.051Z,66.97
2023-03-10T00:47:24.000Z,63.13
2023-03-10T00:49:50.944Z,67.82
2023-03-10T00:52:19.523Z,60.60
2023-03-10T00:54:46.287Z,60.45
2023-03-10T00:57:16.086Z,65.13
2023-03-10T00:59:50.286Z,62.38
2023-03-10T01:02:19.520Z,65.03
2023-03-10T01:04:47.478Z,66.28
2023-03-10T01:07:14.296Z,61.58
2023-03-10T01:09:41.195Z,63.55
2023-03-10T01:12:08.391Z,65.78
2023-03-10T01:14:35.234Z,59.25
2023-03-10T01:17:02.069Z,72.13
2023-03-10T01:19:30.321Z,62.30
2023-03-10T01:21:57.137Z,69.88
2023-03-10T01:24:24.033Z,66.07
2023-03-10T01:26:50.786Z,63.50
2023-03-10T01:29:17.551Z,64.65
2023-03-10T01:31:44.352Z,64.50
2023-03-10T01:34:11.096Z,68.28
2023-03-10T01:36:37.905Z,72.47
2023-03-10T01:39:04.772Z,68.93
2023-03-10T01:41:31.613Z,66.65
2023-03-10T01:43:58.404Z,67.57
2023-03-10T01:46:36.505Z,60.58
2023-03-10T01:49:19.036Z,60.20
2023-03-10T01:52:06.083Z,65.35
2023-03-10T01:55:09.993Z,68.60
2023-03-10T01:57:43.747Z,67.45
2023-03-10T02:00:11.312Z,61.70
2023-03-10T02:02:45.061Z,65.07
2023-03-10T02:05:13.915Z,65.60
2023-03-10T02:07:43.205Z,61.17
2023-03-10T02:10:12.852Z,59.47
2023-03-10T02:12:39.819Z,59.03
2023-03-10T02:15:08.023Z,59.65
2023-03-10T02:17:35.006Z,55.30
2023-03-10T02:20:19.789Z,57.58
2023-03-10T02:22:47.451Z,53.53
2023-03-10T02:25:20.584Z,52.85
2023-03-10T02:27:47.427Z,59.20
2023-03-10T02:30:23.707Z,50.80
2023-03-10T02:32:57.600Z,54.50
2023-03-10T02:35:24.695Z,52.42
2023-03-10T02:37:51.792Z,53.55
2023-03-10T02:40:34.064Z,51.85
2023-03-10T02:43:07.664Z,54.10
2023-03-10T02:45:37.701Z,55.10
2023-03-10T02:48:09.715Z,59.15
2023-03-10T02:50:38.538Z,54.55
2023-03-10T02:53:18.003Z,49.05
2023-03-10T02:55:45.049Z,50.75
2023-03-10T02:58:12.160Z,48.67
2023-03-10T03:00:40.428Z,49.90
2023-03-10T03:03:09.102Z,49.00
2023-03-10T03:05:36.770Z,53.88
2023-03-10T03:08:05.457Z,51.20
2023-03-10T03:10:33.578Z,56.83
2023-03-10T03:13:00.365Z,51.85
2023-03-10T03:15:27.675Z,51.45
2023-03-10T03:17:54.520Z,52.88
2023-03-10T03:20:21.982Z,57.58
2023-03-10T03:22:48.763Z,51.70
2023-03-10T03:25:18.448Z,58.85
2023-03-10T03:27:45.872Z,44.50
2023-03-10T03:30:22.040Z,54.42
2023-03-10T03:32:49.474Z,43.35
2023-03-10T03:35:26.298Z,40.83
2023-03-10T03:37:54.535Z,46.72
2023-03-10T03:40:22.402Z,46.58
2023-03-10T03:42:50.841Z,45.25
2023-03-10T03:45:20.553Z,42.75
2023-03-10T03:47:47.740Z,41.30
2023-03-10T03:50:15.768Z,34.83
2023-03-10T03:52:43.569Z,37.95
2023-03-10T03:55:12.605Z,37.22
2023-03-10T03:57:39.507Z,41.10
2023-03-10T04:00:09.803Z,32.47
2023-03-10T04:02:36.577Z,35.35
2023-03-10T04:05:03.910Z,40.47
2023-03-10T04:07:31.199Z,37.50
2023-03-10T04:09:57.941Z,35.25
2023-03-10T04:12:24.743Z,32.22
2023-03-10T04:14:51.562Z,32.05
2023-03-10T04:17:18.343Z,36.92
2023-03-10T04:19:51.326Z,47.22
2023-03-10T04:22:24.063Z,34.28
2023-03-10T04:24:50.952Z,35.67
2023-03-10T04:27:18.409Z,30.13
2023-03-10T04:29:45.174Z,33.47
2023-03-10T04:32:12.075Z,28.13
2023-03-10T04:34:38.893Z,31.77
2023-03-10T04:37:05.814Z,30.58
2023-03-10T04:39:32.673Z,31.77
2023-03-10T04:41:59.419Z,29.10
2023-03-10T04:44:31.612Z,33.83
2023-03-10T04:46:59.555Z,28.88
2023-03-10T04:49:28.895Z,32.22
2023-03-10T04:51:55.912Z,29.00
2023-03-10T04:54:22.790Z,33.75
2023-03-10T04:56:49.637Z,31.10
2023-03-10T04:59:16.472Z,36.05
2023-03-10T05:01:43.308Z,33.15
2023-03-10T05:04:10.335Z,35.63
2023-03-10T05:06:37.100Z,32.72
2023-03-10T05:09:03.954Z,29.70
2023-03-10T05:11:32.011Z,31.88
2023-03-10T05:13:58.957Z,28.15
2023-03-10T05:16:26.015Z,33.53
2023-03-10T05:18:55.353Z,34.55
2023-03-10T05:21:22.129Z,34.92
2023-03-10T05:23:49.514Z,32.53
2023-03-10T05:26:16.944Z,30.25
2023-03-10T05:28:43.990Z,31.88
2023-03-10T05:31:14.285Z,34.35
2023-03-10T05:33:42.126Z,34.42
2023-03-10T05:36:11.798Z,34.10
2023-03-10T05:38:38.946Z,34.15
2023-03-10T05:41:12.247Z,32.38
2023-03-10T05:43:39.916Z,34.42
2023-03-10T05:46:07.810Z,44.92
2023-03-10T05:48:34.804Z,34.88
2023-03-10T05:51:02.676Z,32.10
2023-03-10T05:53:31.312Z,35.00
2023-03-10T05:55:58.402Z,33.22
2023-03-10T05:58:26.538Z,33.92
2023-03-10T06:00:53.672Z,32.00
2023-03-10T06:03:20.747Z,39.20
2023-03-10T06:05:47.628Z,37.13
2023-03-10T06:08:14.406Z,32.20
2023-03-10T06:10:41.234Z,30.30
2023-03-10T06:13:08.077Z,28.20
2023-03-10T06:15:37.747Z,30.45
2023-03-10T06:18:04.685Z,33.42
2023-03-10T06:20:31.743Z,33.67
2023-03-10T06:22:58.543Z,32.45
2023-03-10T06:25:25.460Z,36.28
2023-03-10T06:27:52.318Z,31.63
2023-03-10T06:30:19.214Z,35.83
2023-03-10T06:32:46.000Z,35.53
2023-03-10T06:35:14.571Z,38.25
2023-03-10T06:37:42.093Z,40.10
2023-03-10T06:40:11.150Z,34.95
2023-03-10T06:42:38.086Z,47.30
2023-03-10T06:45:05.286Z,52.15
2023-03-10T06:47:32.072Z,51.33
2023-03-10T06:50:00.106Z,41.17
2023-03-10T06:52:27.089Z,52.00
2023-03-10T06:54:54.084Z,43.53
2023-03-10T06:57:21.164Z,40.67
2023-03-10T06:59:48.044Z,55.28
2023-03-10T07:02:19.168Z,47.05
2023-03-10T07:04:46.883Z,42.40
2023-03-10T07:07:14.436Z,38.22
2023-03-10T07:09:43.690Z,37.75
2023-03-10T07:12:10.777Z,34.03
2023-03-10T07:14:37.560Z,35.90
2023-03-10T07:17:04.465Z,34.78
2023-03-10T07:19:31.267Z,39.90
2023-03-10T07:21:58.456Z,35.80
2023-03-10T07:24:25.195Z,33.05
2023-03-10T07:26:52.050Z,36.05
2023-03-10T07:29:18.856Z,28.20
2023-03-10T07:31:45.781Z,26.77
2023-03-10T07:34:12.610Z,30.70
2023-03-10T07:36:39.410Z,35.72
2023-03-10T07:39:06.224Z,30.10
2023-03-10T07:41:33.524Z,28.50
2023-03-10T07:44:00.293Z,29.83
2023-03-10T07:46:27.795Z,30.55
2023-03-10T07:48:56.338Z,37.10
2023-03-10T07:51:23.170Z,26.90
2023-03-10T07:53:49.920Z,32.88
2023-03-10T07:56:16.794Z,30.98
2023-03-10T07:58:49.906Z,33.22
2023-03-10T08:01:20.480Z,29.30
2023-03-10T08:03:47.738Z,26.80
2023-03-10T08:06:23.676Z,26.45
2023-03-10T08:08:51.281Z,32.60
2023-03-10T08:11:18.705Z,31.33
2023-03-10T08:13:45.766Z,28.95
2023-03-10T08:16:13.024Z,28.10
2023-03-10T08:18:40.197Z,24.63
2023-03-10T08:21:07.750Z,24.63
2023-03-10T08:23:35.668Z,26.27
2023-03-10T08:26:08.066Z,26.10
2023-03-10T08:28:35.521Z,21.98
2023-03-10T08:31:09.139Z,25.95
2023-03-10T08:33:36.266Z,34.92
2023-03-10T08:36:07.575Z,29.75
2023-03-10T08:38:35.102Z,25.98
2023-03-10T08:41:17.399Z,29.85
2023-03-10T08:43:44.252Z,26.25
2023-03-10T08:46:12.519Z,33.13
2023-03-10T08:48:42.679Z,27.38
2023-03-10T08:51:10.508Z,26.27
2023-03-10T08:53:38.636Z,28.67
2023-03-10T08:56:06.407Z,26.70
2023-03-10T08:58:33.651Z,28.65
2023-03-10T09:01:00.924Z,33.15
2023-03-10T09:03:30.291Z,32.75
2023-03-10T09:05:58.397Z,30.38
2023-03-10T09:08:27.522Z,33.13
2023-03-10T09:10:54.906Z,29.65
2023-03-10T09:13:22.235Z,31.08
2023-03-10T09:15:49.163Z,30.80
2023-03-10T09:18:16.692Z,33.63
2023-03-10T09:20:44.854Z,24.42
2023-03-10T09:23:16.222Z,30.65
2023-03-10T09:25:43.351Z,29.88
2023-03-10T09:28:11.550Z,27.90
2023-03-10T09:30:40.670Z,32.17
2023-03-10T09:33:13.582Z,31.40
2023-03-10T09:35:44.686Z,31.15
2023-03-10T09:38:15.691Z,31.95
2023-03-10T09:41:06.219Z,32.60
2023-03-10T09:43:39.152Z,26.65
2023-03-10T09:46:48.516Z,33.05
2023-03-10T09:49:32.106Z,33.75
2023-03-10T09:52:01.449Z,36.00
2023-03-10T09:54:57.293Z,28.40
2023-03-10T09:57:24.508Z,33.97
2023-03-10T09:59:57.546Z,29.95
2023-03-10T10:02:31.111Z,34.88
2023-03-10T10:05:03.742Z,34.22
2023-03-10T10:07:45.357Z,29.92
2023-03-10T10:10:19.774Z,37.20
2023-03-10T10:12:49.966Z,35.28
2023-03-10T10:15:19.913Z,38.42
2023-03-10T10:18:16.114Z,41.92
2023-03-10T10:20:56.917Z,33.72
2023-03-10T10:23:40.807Z,35.53
2023-03-10T10:26:18.206Z,33.67
2023-03-10T10:29:02.597Z,38.47
2023-03-10T10:31:31.919Z,33.22
2023-03-10T10:34:03.602Z,37.35
2023-03-10T10:36:52.001Z,32.67
2023-03-10T10:39:21.822Z,31.20
2023-03-10T10:41:48.657Z,30.13
2023-03-10T10:44:17.297Z,32.67
2023-03-10T10:46:55.299Z,35.33
2023-03-10T10:49:27.714Z,32.20
2023-03-10T10:52:17.933Z,31.77
2023-03-10T10:54:51.900Z,32.53
2023-03-10T10:57:31.435Z,33.85
2023-03-10T11:00:15.908Z,32.95
2023-03-10T11:02:42.787Z,40.53
2023-03-10T11:05:15.587Z,37.65
2023-03-10T11:07:42.400Z,38.25
2023-03-10T11:10:18.437Z,32.92
2023-03-10T11:13:05.691Z,34.35
2023-03-10T11:15:37.686Z,34.55
2023-03-10T11:18:22.400Z,31.67
2023-03-10T11:20:59.671Z,30.67
2023-03-10T11:23:33.837Z,32.35
2023-03-10T11:26:24.679Z,32.53
2023-03-10T11:29:22.889Z,34.35
2023-03-10T11:32:19.345Z,33.22
2023-03-10T11:34:52.282Z,31.35
2023-03-10T11:37:37.057Z,30.10
2023-03-10T11:40:22.572Z,34.97
2023-03-10T11:43:00.473Z,30.58
2023-03-10T11:45:50.199Z,30.40
2023-03-10T11:48:29.234Z,28.27
2023-03-10T11:51:04.537Z,27.90
2023-03-10T11:53:38.580Z,24.38
2023-03-10T11:56:08.037Z,29.25
2023-03-10T11:59:06.766Z,29.55
2023-03-10T12:01:48.204Z,28.88
2023-03-10T12:04:25.083Z,29.38
2023-03-10T12:07:07.179Z,27.15
2023-03-10T12:09:42.992Z,28.10
2023-03-10T12:14:43.117Z,26.60
2023-03-10T12:17:15.233Z,22.95
2023-03-10T12:20:12.856Z,24.15
2023-03-10T12:22:39.624Z,21.83
2023-03-10T12:25:29.170Z,20.33
2023-03-10T12:28:12.422Z,15.82
2023-03-10T12:31:03.603Z,15.50
2023-03-10T12:33:33.346Z,13.30
2023-03-10T12:36:14.963Z,11.70
2023-03-10T12:38:54.690Z,13.20
2023-03-10T12:41:27.185Z,13.77
2023-03-10T12:44:21.614Z,20.38
2023-03-10T12:47:15.147Z,21.48
2023-03-10T12:49:41.914Z,24.33
2023-03-10T12:52:44.935Z,29.80
2023-03-10T12:55:25.461Z,19.40
2023-03-10T12:58:15.456Z,19.02
2023-03-10T13:00:55.610Z,17.27
2023-03-10T13:03:36.088Z,14.95
2023-03-10T13:06:13.184Z,18.00
2023-03-10T13:08:39.946Z,11.80
2023-03-10T13:11:18.827Z,12.32
2023-03-10T13:13:58.505Z,12.57
2023-03-10T13:16:25.569Z,9.77
2023-03-10T13:18:54.185Z,10.07
2023-03-10T13:21:38.849Z,9.25
2023-03-10T13:24:35.919Z,8.77
2023-03-10T13:27:19.498Z,9.70
2023-03-10T13:30:13.549Z,10.98
2023-03-10T13:32:40.753Z,8.82
2023-03-10T13:35:38.571Z,9.43
2023-03-10T13:38:14.094Z,12.20
2023-03-10T13:41:00.800Z,10.40
2023-03-10T13:43:39.257Z,10.73
2023-03-10T13:46:14.404Z,8.80
2023-03-10T13:48:42.237Z,12.55
2023-03-10T13:51:25.184Z,9.20
2023-03-10T13:53:54.229Z,11.57
2023-03-10T13:56:25.634Z,15.50
2023-03-10T13:58:56.014Z,15.93
2023-03-10T14:01:32.756Z,14.77
2023-03-10T14:04:02.296Z,13.40
2023-03-10T14:06:29.984Z,13.50
2023-03-10T14:08:56.934Z,13.38
2023-03-10T14:11:34.414Z,13.43
2023-03-10T14:14:02.560Z,11.98
2023-03-10T14:16:57.357Z,13.13
2023-03-10T14:19:43.330Z,12.25
2023-03-10T14:22:31.104Z,12.60
2023-03-10T14:25:00.485Z,14.52
2023-03-10T14:27:32.971Z,17.75
2023-03-10T14:30:41.464Z,17.42
2023-03-10T14:33:43.603Z,16.10
2023-03-10T14:36:16.083Z,15.63
2023-03-10T14:38:43.301Z,13.15
2023-03-10T14:41:14.709Z,14.10
2023-03-10T14:43:42.334Z,12.60
2023-03-10T14:46:11.816Z,12.90
2023-03-10T14:48:40.202Z,12.88
2023-03-10T14:51:07.729Z,11.50
2023-03-10T14:53:34.747Z,13.77
2023-03-10T14:56:02.448Z,20.20
2023-03-10T14:58:36.882Z,18.17
2023-03-10T15:01:05.860Z,19.65
2023-03-10T15:03:32.702Z,22.50
2023-03-10T15:05:59.538Z,23.40
2023-03-10T15:08:28.067Z,19.00
2023-03-10T15:10:56.315Z,19.33
2023-03-10T15:13:24.493Z,18.42
2023-03-10T15:15:51.743Z,18.20
2023-03-10T15:18:23.419Z,17.48
2023-03-10T15:20:53.670Z,17.98
2023-03-10T15:23:20.607Z,15.02
2023-03-10T15:25:47.723Z,18.83
2023-03-10T15:28:14.640Z,16.25
2023-03-10T15:30:42.156Z,15.45
2023-03-10T15:33:09.029Z,18.85
2023-03-10T15:35:36.338Z,21.45
2023-03-10T15:38:03.588Z,23.88
2023-03-10T15:40:31.923Z,20.25
2023-03-10T15:43:02.571Z,24.60
2023-03-10T15:45:31.196Z,21.88
2023-03-10T15:47:59.145Z,24.23
2023-03-10T15:50:26.255Z,21.92
2023-03-10T15:52:55.684Z,26.50
2023-03-10T15:55:23.240Z,27.30
2023-03-10T15:57:50.330Z,29.58
2023-03-10T16:00:21.776Z,32.25
2023-03-10T16:02:49.735Z,33.58
2023-03-10T16:05:17.761Z,37.35
2023-03-10T16:07:47.266Z,33.65
2023-03-10T16:10:17.189Z,35.50
2023-03-10T16:12:44.631Z,38.70
2023-03-10T16:15:12.475Z,42.00
2023-03-10T16:17:39.606Z,48.38
2023-03-10T16:20:08.434Z,45.22
2023-03-10T16:22:35.392Z,43.33
2023-03-10T16:25:02.179Z,45.92
2023-03-10T16:27:28.937Z,40.00
2023-03-10T16:29:55.795Z,40.60
2023-03-10T16:32:22.691Z,50.80
2023-03-10T16:34:49.475Z,49.75
2023-03-10T16:37:16.218Z,48.13
2023-03-10T16:39:43.076Z,37.92
2023-03-10T16:42:09.955Z,34.30
2023-03-10T16:44:36.705Z,42.47
2023-03-10T16:47:06.736Z,45.53
2023-03-10T16:49:34.502Z,45.80
2023-03-10T16:52:01.317Z,44.05
2023-03-10T16:54:28.302Z,44.30
2023-03-10T16:56:55.109Z,40.85
2023-03-10T16:59:24.138Z,38.63
2023-03-10T17:01:51.651Z,46.85
2023-03-10T17:04:19.534Z,41.13
2023-03-10T17:06:47.197Z,53.58
2023-03-10T17:09:15.399Z,53.85
2023-03-10T17:11:47.096Z,53.25
2023-03-10T17:14:16.475Z,60.17
2023-03-10T17:16:45.251Z,47.53
2023-03-10T17:19:15.880Z,54.75
2023-03-10T17:21:45.283Z,58.88
2023-03-10T17:24:13.626Z,57.90
2023-03-10T17:26:40.873Z,52.65
2023-03-10T17:29:08.058Z,51.70
2023-03-10T17:31:35.652Z,45.28
2023-03-10T17:34:08.286Z,44.38
2023-03-10T17:36:41.044Z,40.75
2023-03-10T17:39:07.984Z,39.13
2023-03-10T17:41:36.106Z,44.92
2023-03-10T17:44:03.033Z,42.17
2023-03-10T17:46:30.130Z,46.95
2023-03-10T17:48:57.637Z,39.85
2023-03-10T17:51:27.474Z,41.95
2023-03-10T17:53:56.961Z,43.90
2023-03-10T17:56:25.451Z,43.08
2023-03-10T17:58:56.942Z,40.95
2023-03-10T18:01:26.275Z,38.58
2023-03-10T18:03:57.143Z,40.10
2023-03-10T18:06:28.432Z,35.65
2023-03-10T18:08:57.025Z,36.40
2023-03-10T18:11:24.728Z,37.70
2023-03-10T18:13:51.806Z,44.55
2023-03-10T18:16:24.334Z,47.05
2023-03-10T18:18:51.658Z,40.10
2023-03-10T18:21:19.729Z,33.08
2023-03-10T18:23:48.600Z,38.45
2023-03-10T18:26:22.270Z,45.03
2023-03-10T18:28:49.109Z,44.53
2023-03-10T18:31:21.988Z,35.28
2023-03-10T18:33:49.400Z,29.58
2023-03-10T18:36:17.707Z,32.15
2023-03-10T18:38:45.576Z,30.98
2023-03-10T18:41:12.882Z,33.15
2023-03-10T18:43:39.783Z,34.22
2023-03-10T18:46:06.743Z,33.78
2023-03-10T18:48:33.722Z,33.70
2023-03-10T18:51:00.510Z,27.88
2023-03-10T18:53:27.631Z,30.88
2023-03-10T18:55:54.931Z,25.58
2023-03-10T18:58:22.268Z,25.67
2023-03-10T19:00:49.136Z,21.02
2023-03-10T19:03:16.545Z,30.67
2023-03-10T19:05:45.396Z,25.25
2023-03-10T19:08:12.131Z,23.80
2023-03-10T19:10:39.530Z,45.33
2023-03-10T19:13:07.310Z,26.48
2023-03-10T19:15:37.685Z,24.88
2023-03-10T19:18:04.701Z,22.90
2023-03-10T19:20:31.529Z,23.75
2023-03-10T19:22:58.370Z,24.55
2023-03-10T19:25:25.431Z,29.70
2023-03-10T19:27:54.278Z,30.17
2023-03-10T19:30:21.308Z,29.40
2023-03-10T19:32:48.821Z,26.42
2023-03-10T19:35:17.002Z,25.90
2023-03-10T19:37:43.979Z,26.45
2023-03-10T19:40:16.750Z,23.65
2023-03-10T19:42:43.559Z,29.65
2023-03-10T19:45:12.373Z,34.22
2023-03-10T19:47:39.591Z,32.72
2023-03-10T19:50:10.676Z,34.20
2023-03-10T19:52:37.727Z,31.83
2023-03-10T19:55:06.052Z,36.88
2023-03-10T19:57:35.569Z,40.20
2023-03-10T20:00:04.920Z,38.55
2023-03-10T20:02:32.535Z,47.40
2023-03-10T20:04:59.375Z,37.58
2023-03-10T20:07:26.261Z,36.17
2023-03-10T20:09:53.024Z,35.15
2023-03-10T20:12:19.732Z,38.72
2023-03-10T20:14:46.562Z,36.60
2023-03-10T20:17:13.352Z,36.05
2023-03-10T20:19:41.331Z,35.97
2023-03-10T20:22:10.990Z,39.95
2023-03-10T20:24:39.234Z,34.65
2023-03-10T20:27:05.910Z,37.20
2023-03-10T20:29:32.586Z,34.40
2023-03-10T20:31:59.720Z,36.17
2023-03-10T20:34:26.437Z,36.25
2023-03-10T20:36:53.232Z,44.50
2023-03-10T20:39:20.112Z,38.95
2023-03-10T20:41:46.851Z,34.50
2023-03-10T20:44:13.959Z,34.63
2023-03-10T20:46:42.599Z,35.50
2023-03-10T20:49:11.933Z,36.55
2023-03-10T20:51:40.005Z,40.78
2023-03-10T20:54:07.817Z,42.38
2023-03-10T20:56:34.563Z,39.53
2023-03-10T20:59:01.349Z,37.40
2023-03-10T21:01:29.305Z,42.25
2023-03-10T21:03:56.768Z,39.30
2023-03-10T21:06:25.455Z,46.92
2023-03-10T21:08:52.812Z,41.60
2023-03-10T21:11:19.754Z,41.97
2023-03-10T21:13:46.499Z,44.25
2023-03-10T21:16:13.462Z,42.50
2023-03-10T21:18:40.589Z,42.97
2023-03-10T21:21:08.300Z,45.42
2023-03-10T21:23:37.147Z,38.45
2023-03-10T21:26:13.776Z,35.30
2023-03-10T21:28:41.159Z,36.63
2023-03-10T21:31:08.359Z,37.80
2023-03-10T21:33:35.363Z,37.63
2023-03-10T21:36:02.632Z,35.90
2023-03-10T21:38:29.520Z,44.67
2023-03-10T21:40:56.276Z,40.72
2023-03-10T21:43:23.108Z,36.78
2023-03-10T21:45:50.170Z,41.60
2023-03-10T21:48:16.918Z,38.70
2023-03-10T21:50:43.890Z,36.28
2023-03-10T21:53:12.126Z,40.38
2023-03-10T21:55:39.000Z,42.40
2023-03-10T21:58:05.860Z,38.75
2023-03-10T22:00:32.700Z,40.25
2023-03-10T22:02:59.726Z,40.83
2023-03-10T22:05:26.698Z,42.65
2023-03-10T22:07:53.523Z,44.67
2023-03-10T22:10:20.241Z,43.22
2023-03-10T22:12:47.267Z,51.10
2023-03-10T22:15:20.443Z,46.50
2023-03-10T22:17:47.631Z,52.58
2023-03-10T22:20:16.580Z,46.17
2023-03-10T22:22:43.428Z,53.97
2023-03-10T22:25:10.773Z,59.28
2023-03-10T22:27:37.621Z,50.67
2023-03-10T22:30:05.025Z,53.30
2023-03-10T22:32:31.789Z,41.70
2023-03-10T22:35:01.938Z,53.92
2023-03-10T22:37:28.725Z,52.88
2023-03-10T22:39:55.513Z,47.10
2023-03-10T22:42:22.297Z,41.80
2023-03-10T22:44:49.195Z,41.40
2023-03-10T22:47:17.402Z,40.30
2023-03-10T22:49:44.214Z,45.00
2023-03-10T22:52:13.351Z,42.63
2023-03-10T22:54:40.097Z,47.38
2023-03-10T22:57:06.919Z,41.10
2023-03-10T22:59:33.675Z,50.22
2023-03-10T23:02:00.444Z,50.80
2023-03-10T23:04:29.237Z,49.70
2023-03-10T23:06:55.978Z,46.80
2023-03-10T23:09:22.787Z,50.97
2023-03-10T23:11:49.632Z,47.47
2023-03-10T23:14:16.523Z,55.95
2023-03-10T23:16:43.370Z,50.80
2023-03-10T23:19:10.212Z,50.08
2023-03-10T23:21:37.055Z,54.67
2023-03-10T23:24:07.017Z,56.35
2023-03-10T23:26:33.857Z,55.50
2023-03-10T23:29:00.725Z,49.13
2023-03-10T23:31:27.578Z,53.78
2023-03-10T23:33:54.489Z,61.08
2023-03-10T23:36:21.274Z,60.95
2023-03-10T23:38:48.054Z,57.88
2023-03-10T23:41:14.936Z,55.03
2023-03-10T23:43:41.703Z,59.88
2023-03-10T23:46:08.927Z,48.83
2023-03-10T23:48:36.006Z,58.20
2023-03-10T23:51:03.090Z,49.65
2023-03-10T23:53:30.458Z,47.78
2023-03-10T23:55:57.308Z,43.67
2023-03-10T23:58:24.666Z,44.50
